Terminal Aerodrome Forecast
Issued by NWS

Home | Current Version | Previous Version | Text Only | Print | Product List | Glossary On
Versions: 1 2 3 4 5 6 7 8 9 10 11 12 13 14 15 16 17 18 19 20 21 22 23 24 25 26 27
000
FTUS42 KGSP 032331
TAFGMU
TAF
KGMU 032331Z 0400/0424 24008KT P6SM SCT040 BKN150 PROB30 0409/0413
      5SM -TSRA BKN025CB
     FM041300 24008KT P6SM VCSH BKN025
     FM041500 24008G16KT P6SM BKN040 PROB30 0420/0424 5SM -TSRA
      BKN035CB=

USA.gov is the U.S. government's official web portal to all federal, state and local government web resources and services.